Sydney, Australia
Current Conditions -  °F | °C
As of 9:00 PM on Wednesday 26 Nov 2014 (Local Time) from YSSY Reporting Station
Scattered Clouds Scattered Clouds  
Wind Chill: 21°   Ceiling: Unl
Heat Index: 21°   Visibility: 6mi
Dew Point: 16°   Wind: 13mph
Humidity: 73%   Direction: 80°E
Pressure: 30.06"   Gusts: NA
Location:  33.87°S, 151.21°E
Report Text: YSSY 261000Z 08011KT 9999 FEW018 SCT032 21/16 Q1018 NOSIG
Loading
Personal Weather Stations






























Interactive Weather Map New forecast layout! Learn more

10-Day Weather Forecast

Advertisements
Track Severe Weather on mobile